Time,TemperatureF,DewpointF,PressureIn,WindDirection,WindDirectionDegrees,WindSpeedMPH,WindSpeedGustMPH,Humidity,HourlyPrecipIn,Conditions,Clouds,dailyrainin,SoftwareType,DateUTC
2013-01-27 07:38:00,12.6,4.4,30.41,WNW,292,0.0,0.0,69,0.00,,---,0.00,VWS V13.01,2013-01-27 12:38:00,
2013-01-27 07:39:00,13.6,5.0,30.41,WNW,294,0.0,0.0,68,0.00,,---,0.00,VWS V13.01,2013-01-27 12:39:00,
2013-01-27 07:44:00,14.1,5.5,30.42,WNW,294,0.0,0.0,68,0.00,,---,0.00,VWS V13.01,2013-01-27 12:44:00,
2013-01-27 07:49:00,14.3,5.4,30.42,WNW,294,0.0,0.0,67,0.00,,---,0.00,VWS V13.01,2013-01-27 12:49:00,
2013-01-27 07:54:00,14.9,5.9,30.42,WNW,294,0.0,2.0,67,0.00,,---,0.00,VWS V13.01,2013-01-27 12:54:00,
2013-01-27 07:59:00,15.6,6.6,30.43,WNW,294,0.0,2.0,67,0.00,,---,0.00,VWS V13.01,2013-01-27 12:59:00,
2013-01-27 08:04:00,16.4,6.7,30.43,WNW,294,0.0,3.0,65,0.00,,---,0.00,VWS V13.01,2013-01-27 13:04:00,
2013-01-27 08:09:00,17.0,7.3,30.43,SW,219,0.0,4.0,65,0.00,,---,0.00,VWS V13.01,2013-01-27 13:09:00,
2013-01-27 08:14:00,17.7,7.9,30.43,SW,219,0.0,0.0,65,0.00,,---,0.00,VWS V13.01,2013-01-27 13:14:00,
2013-01-27 08:19:00,18.4,8.3,30.43,SW,219,0.0,0.0,64,0.00,,---,0.00,VWS V13.01,2013-01-27 13:19:00,
2013-01-27 08:24:00,19.2,9.0,30.43,SW,219,0.0,0.0,64,0.00,,---,0.00,VWS V13.01,2013-01-27 13:24:00,
2013-01-27 08:29:00,19.9,9.0,30.44,West,275,2.0,5.0,62,0.00,,---,0.00,VWS V13.01,2013-01-27 13:29:00,
2013-01-27 08:34:00,20.3,9.4,30.44,West,275,2.0,5.0,62,0.00,,---,0.00,VWS V13.01,2013-01-27 13:34:00,
2013-01-27 08:39:00,20.8,9.5,30.44,WNW,287,6.0,6.0,61,0.00,,---,0.00,VWS V13.01,2013-01-27 13:39:00,
2013-01-27 08:44:00,21.3,10.0,30.44,WNW,299,2.0,7.0,61,0.00,,---,0.00,VWS V13.01,2013-01-27 13:44:00,
2013-01-27 08:49:00,21.6,9.9,30.44,NW,304,4.0,10.0,60,0.00,,---,0.00,VWS V13.01,2013-01-27 13:49:00,
2013-01-27 08:54:00,21.9,10.5,30.44,NW,306,5.0,10.0,61,0.00,,---,0.00,VWS V13.01,2013-01-27 13:54:00,
2013-01-27 08:59:00,22.1,10.4,30.45,NW,323,5.0,10.0,60,0.00,,---,0.00,VWS V13.01,2013-01-27 13:59:00,
2013-01-27 09:04:00,22.2,10.4,30.45,NW,317,4.0,10.0,60,0.00,,---,0.00,VWS V13.01,2013-01-27 14:04:00,
2013-01-27 09:09:00,22.7,10.9,30.45,NNW,327,3.0,10.0,60,0.00,,---,0.00,VWS V13.01,2013-01-27 14:09:00,
2013-01-27 09:14:00,22.9,10.7,30.45,NW,317,2.0,7.0,59,0.00,,---,0.00,VWS V13.01,2013-01-27 14:14:00,
2013-01-27 09:19:00,23.0,11.2,30.45,NW,317,4.0,7.0,60,0.00,,---,0.00,VWS V13.01,2013-01-27 14:19:00,
2013-01-27 09:24:00,23.0,11.2,30.45,NW,306,3.0,9.0,60,0.00,,---,0.00,VWS V13.01,2013-01-27 14:24:00,
2013-01-27 09:28:00,23.5,11.3,30.46,NW,314,4.0,6.0,59,0.00,,---,0.00,VWS V13.01,2013-01-27 14:28:00,
2013-01-27 09:33:00,23.8,12.0,30.46,NW,317,7.0,10.0,60,0.00,,---,0.00,VWS V13.01,2013-01-27 14:33:00,
2013-01-27 09:39:00,24.1,12.2,30.46,NW,311,4.0,10.0,60,0.00,,---,0.00,VWS V13.01,2013-01-27 14:39:00,
2013-01-27 09:44:00,23.9,11.7,30.47,NW,321,10.0,11.0,59,0.00,,---,0.00,VWS V13.01,2013-01-27 14:44:00,
2013-01-27 09:49:00,24.1,11.9,30.47,NW,326,3.0,13.0,59,0.00,,---,0.00,VWS V13.01,2013-01-27 14:49:00,
2013-01-27 09:54:00,24.2,11.6,30.47,North,350,7.0,14.0,58,0.00,,---,0.00,VWS V13.01,2013-01-27 14:54:00,
2013-01-27 09:59:00,24.2,11.6,30.47,North,5,3.0,12.0,58,0.00,,---,0.00,VWS V13.01,2013-01-27 14:59:00,
2013-01-27 10:04:00,24.7,12.0,30.47,North,9,4.0,12.0,58,0.00,,---,0.00,VWS V13.01,2013-01-27 15:04:00,
2013-01-27 10:09:00,25.0,11.9,30.47,North,355,6.0,12.0,57,0.00,,---,0.00,VWS V13.01,2013-01-27 15:09:00,
2013-01-27 10:14:00,24.8,11.7,30.47,NW,321,10.0,14.0,57,0.00,,---,0.00,VWS V13.01,2013-01-27 15:14:00,
2013-01-27 10:19:00,25.0,12.3,30.47,NNW,329,7.0,14.0,58,0.00,,---,0.00,VWS V13.01,2013-01-27 15:19:00,
2013-01-27 10:24:00,25.0,11.5,30.47,NW,313,4.0,14.0,56,0.00,,---,0.00,VWS V13.01,2013-01-27 15:24:00,
2013-01-27 10:29:00,25.4,12.3,30.48,NW,325,10.0,12.0,57,0.00,,---,0.00,VWS V13.01,2013-01-27 15:29:00,
2013-01-27 10:34:00,25.6,11.7,30.48,NW,309,9.0,12.0,55,0.00,,---,0.00,VWS V13.01,2013-01-27 15:34:00,
2013-01-27 10:39:00,25.8,12.3,30.48,NW,320,10.0,12.0,56,0.00,,---,0.00,VWS V13.01,2013-01-27 15:39:00,
2013-01-27 10:44:00,25.8,11.9,30.48,NW,318,6.0,11.0,55,0.00,,---,0.00,VWS V13.01,2013-01-27 15:44:00,
2013-01-27 10:49:00,26.0,12.1,30.48,WNW,297,7.0,13.0,55,0.00,,---,0.00,VWS V13.01,2013-01-27 15:49:00,
2013-01-27 10:54:00,26.3,12.3,30.48,NNW,331,4.0,13.0,55,0.00,,---,0.00,VWS V13.01,2013-01-27 15:54:00,
2013-01-27 10:59:00,26.6,12.2,30.47,NNW,346,6.0,13.0,54,0.00,,---,0.00,VWS V13.01,2013-01-27 15:59:00,
2013-01-27 11:04:00,26.4,12.0,30.47,North,5,8.0,14.0,54,0.00,,---,0.00,VWS V13.01,2013-01-27 16:04:00,
2013-01-27 11:09:00,26.7,12.3,30.47,North,349,5.0,14.0,54,0.00,,---,0.00,VWS V13.01,2013-01-27 16:09:00,
2013-01-27 11:14:00,27.2,12.4,30.46,NNW,343,4.0,11.0,53,0.00,,---,0.00,VWS V13.01,2013-01-27 16:14:00,
2013-01-27 11:19:00,27.6,12.7,30.46,North,9,8.0,11.0,53,0.00,,---,0.00,VWS V13.01,2013-01-27 16:19:00,
2013-01-27 11:24:00,27.9,12.1,30.46,NW,315,5.0,11.0,51,0.00,,---,0.00,VWS V13.01,2013-01-27 16:24:00,
2013-01-27 11:29:00,27.8,12.5,30.46,NNW,336,4.0,11.0,52,0.00,,---,0.00,VWS V13.01,2013-01-27 16:29:00,
2013-01-27 11:34:00,27.9,12.1,30.46,NW,317,9.0,15.0,51,0.00,,---,0.00,VWS V13.01,2013-01-27 16:34:00,
2013-01-27 11:39:00,27.9,11.7,30.46,North,5,5.0,15.0,50,0.00,,---,0.00,VWS V13.01,2013-01-27 16:39:00,
2013-01-27 11:44:00,28.2,12.4,30.45,NW,309,6.0,12.0,51,0.00,,---,0.00,VWS V13.01,2013-01-27 16:44:00,
2013-01-27 11:49:00,28.5,12.7,30.45,NNW,346,6.0,12.0,51,0.00,,---,0.00,VWS V13.01,2013-01-27 16:49:00,
2013-01-27 11:54:00,29.0,12.7,30.45,NW,322,6.0,13.0,50,0.00,,---,0.00,VWS V13.01,2013-01-27 16:54:00,
2013-01-27 11:59:00,29.3,11.6,30.45,North,5,10.0,15.0,47,0.00,,---,0.00,VWS V13.01,2013-01-27 16:59:00,
2013-01-27 12:04:00,29.1,12.3,30.45,NNW,341,9.0,15.0,49,0.00,,---,0.00,VWS V13.01,2013-01-27 17:04:00,
2013-01-27 12:09:00,29.3,12.1,30.45,NW,319,7.0,15.0,48,0.00,,---,0.00,VWS V13.01,2013-01-27 17:09:00,
2013-01-27 12:14:00,29.3,12.1,30.44,North,355,11.0,12.0,48,0.00,,---,0.00,VWS V13.01,2013-01-27 17:14:00,
2013-01-27 12:19:00,29.4,12.1,30.44,NW,314,6.0,12.0,48,0.00,,---,0.00,VWS V13.01,2013-01-27 17:19:00,
2013-01-27 12:24:00,29.7,11.5,30.44,NNW,342,5.0,12.0,46,0.00,,---,0.00,VWS V13.01,2013-01-27 17:24:00,
2013-01-27 12:29:00,29.7,11.5,30.43,NNW,344,1.0,4.0,46,0.00,,---,0.00,VWS V13.01,2013-01-27 17:29:00,
2013-01-27 12:34:00,30.0,11.7,30.43,NW,312,8.0,12.0,46,0.00,,---,0.00,VWS V13.01,2013-01-27 17:34:00,
2013-01-27 12:39:00,30.0,10.7,30.43,NNW,340,3.0,12.0,44,0.00,,---,0.00,VWS V13.01,2013-01-27 17:39:00,
2013-01-27 12:43:00,30.6,11.8,30.42,NW,321,3.0,6.0,45,0.00,,---,0.00,VWS V13.01,2013-01-27 17:43:00,
2013-01-27 12:48:00,30.9,12.6,30.42,NW,321,4.0,10.0,46,0.00,,---,0.00,VWS V13.01,2013-01-27 17:48:00,
2013-01-27 12:53:00,30.9,12.6,30.42,North,5,6.0,13.0,46,0.00,,---,0.00,VWS V13.01,2013-01-27 17:53:00,
2013-01-27 12:58:00,30.7,12.4,30.42,NNW,337,5.0,10.0,46,0.00,,---,0.00,VWS V13.01,2013-01-27 17:58:00,
2013-01-27 13:03:00,30.9,12.6,30.42,NNW,336,7.0,10.0,46,0.00,,---,0.00,VWS V13.01,2013-01-27 18:03:00,
2013-01-27 13:08:00,30.9,11.6,30.42,WNW,288,7.0,12.0,44,0.00,,---,0.00,VWS V13.01,2013-01-27 18:08:00,
2013-01-27 13:13:00,31.2,12.4,30.41,NNW,337,11.0,15.0,45,0.00,,---,0.00,VWS V13.01,2013-01-27 18:13:00,
2013-01-27 13:18:00,31.0,11.7,30.41,NW,310,3.0,15.0,44,0.00,,---,0.00,VWS V13.01,2013-01-27 18:18:00,
2013-01-27 13:23:00,31.5,11.6,30.41,NNW,342,5.0,15.0,43,0.00,,---,0.00,VWS V13.01,2013-01-27 18:23:00,
2013-01-27 13:28:00,31.9,12.0,30.41,NNW,327,7.0,11.0,43,0.00,,---,0.00,VWS V13.01,2013-01-27 18:28:00,
2013-01-27 13:33:00,32.1,11.6,30.41,NW,314,2.0,11.0,42,0.00,,---,0.00,VWS V13.01,2013-01-27 18:33:00,
2013-01-27 13:38:00,32.2,11.2,30.41,NW,313,2.0,11.0,41,0.00,,---,0.00,VWS V13.01,2013-01-27 18:38:00,
2013-01-27 13:43:00,31.9,11.4,30.41,WNW,292,5.0,6.0,42,0.00,,---,0.00,VWS V13.01,2013-01-27 18:43:00,
2013-01-27 13:48:00,32.1,11.6,30.41,NNW,340,6.0,13.0,42,0.00,,---,0.00,VWS V13.01,2013-01-27 18:48:00,
2013-01-27 13:53:00,32.4,11.9,30.41,NW,315,5.0,13.0,42,0.00,,---,0.00,VWS V13.01,2013-01-27 18:53:00,
2013-01-27 13:58:00,32.5,11.4,30.40,NW,314,3.0,6.0,41,0.00,,---,0.00,VWS V13.01,2013-01-27 18:58:00,
2013-01-27 14:03:00,32.7,11.6,30.40,NW,313,3.0,10.0,41,0.00,,---,0.00,VWS V13.01,2013-01-27 19:03:00,
2013-01-27 14:08:00,32.9,12.3,30.40,WSW,251,1.0,10.0,42,0.00,,---,0.00,VWS V13.01,2013-01-27 19:08:00,
2013-01-27 14:13:00,33.4,12.8,30.40,NW,325,2.0,5.0,42,0.00,,---,0.00,VWS V13.01,2013-01-27 19:13:00,
2013-01-27 14:18:00,33.2,11.5,30.40,NW,316,3.0,11.0,40,0.00,,---,0.00,VWS V13.01,2013-01-27 19:18:00,
2013-01-27 14:23:00,33.1,12.0,30.40,WNW,294,3.0,11.0,41,0.00,,---,0.00,VWS V13.01,2013-01-27 19:23:00,
2013-01-27 14:28:00,33.2,12.1,30.40,West,272,4.0,9.0,41,0.00,,---,0.00,VWS V13.01,2013-01-27 19:28:00,
2013-01-27 14:33:00,33.4,12.2,30.40,NW,315,0.0,9.0,41,0.00,,---,0.00,VWS V13.01,2013-01-27 19:33:00,
2013-01-27 14:38:00,33.5,11.2,30.40,WNW,294,7.0,9.0,39,0.00,,---,0.00,VWS V13.01,2013-01-27 19:38:00,
2013-01-27 14:43:00,33.4,11.1,30.39,WNW,292,3.0,7.0,39,0.00,,---,0.00,VWS V13.01,2013-01-27 19:43:00,
2013-01-27 14:48:00,33.7,10.8,30.39,WNW,296,3.0,7.0,38,0.00,,---,0.00,VWS V13.01,2013-01-27 19:48:00,
2013-01-27 14:53:00,33.8,10.9,30.39,NW,321,0.0,7.0,38,0.00,,---,0.00,VWS V13.01,2013-01-27 19:53:00,
2013-01-27 14:58:00,33.8,10.9,30.39,NW,314,8.0,8.0,38,0.00,,---,0.00,VWS V13.01,2013-01-27 19:58:00,
2013-01-27 15:03:00,33.5,10.6,30.39,NW,317,6.0,10.0,38,0.00,,---,0.00,VWS V13.01,2013-01-27 20:03:00,
2013-01-27 15:08:00,33.4,10.5,30.39,WNW,291,3.0,11.0,38,0.00,,---,0.00,VWS V13.01,2013-01-27 20:08:00,
2013-01-27 15:13:00,33.4,10.5,30.40,NW,317,4.0,11.0,38,0.00,,---,0.00,VWS V13.01,2013-01-27 20:13:00,
2013-01-27 15:18:00,33.5,10.6,30.40,NW,310,2.0,11.0,38,0.00,,---,0.00,VWS V13.01,2013-01-27 20:18:00,
2013-01-27 15:23:00,34.0,11.7,30.40,WNW,300,5.0,11.0,39,0.00,,---,0.00,VWS V13.01,2013-01-27 20:23:00,
2013-01-27 15:28:00,34.1,10.6,30.40,WNW,292,3.0,9.0,37,0.00,,---,0.00,VWS V13.01,2013-01-27 20:28:00,
2013-01-27 15:33:00,34.1,10.6,30.40,North,349,7.0,9.0,37,0.00,,---,0.00,VWS V13.01,2013-01-27 20:33:00,
2013-01-27 15:38:00,33.8,10.3,30.40,NW,321,5.0,11.0,37,0.00,,---,0.00,VWS V13.01,2013-01-27 20:38:00,
2013-01-27 15:43:00,33.5,10.0,30.40,WNW,296,10.0,10.0,37,0.00,,---,0.00,VWS V13.01,2013-01-27 20:43:00,
2013-01-27 15:48:00,33.2,10.4,30.40,NW,304,9.0,10.0,38,0.00,,---,0.00,VWS V13.01,2013-01-27 20:48:00,
2013-01-27 15:53:00,33.2,10.4,30.40,NW,305,6.0,10.0,38,0.00,,---,0.00,VWS V13.01,2013-01-27 20:53:00,
2013-01-27 15:58:00,33.2,10.9,30.40,West,281,8.0,10.0,39,0.00,,---,0.00,VWS V13.01,2013-01-27 20:58:00,
2013-01-27 16:03:00,33.1,10.3,30.40,WNW,302,3.0,10.0,38,0.00,,---,0.00,VWS V13.01,2013-01-27 21:03:00,
2013-01-27 16:08:00,32.8,10.0,30.40,WNW,289,3.0,10.0,38,0.00,,---,0.00,VWS V13.01,2013-01-27 21:08:00,
2013-01-27 16:13:00,32.7,10.5,30.40,WNW,290,4.0,7.0,39,0.00,,---,0.00,VWS V13.01,2013-01-27 21:13:00,
2013-01-27 16:18:00,32.4,10.2,30.40,WNW,291,6.0,7.0,39,0.00,,---,0.00,VWS V13.01,2013-01-27 21:18:00,
2013-01-27 16:23:00,32.4,10.8,30.40,WNW,291,2.0,7.0,40,0.00,,---,0.00,VWS V13.01,2013-01-27 21:23:00,
2013-01-27 16:28:00,32.4,10.8,30.40,WNW,291,2.0,5.0,40,0.00,,---,0.00,VWS V13.01,2013-01-27 21:28:00,
2013-01-27 16:33:00,32.4,10.8,30.40,WNW,288,2.0,7.0,40,0.00,,---,0.00,VWS V13.01,2013-01-27 21:33:00,
2013-01-27 16:38:00,32.5,10.3,30.40,NW,308,6.0,9.0,39,0.00,,---,0.00,VWS V13.01,2013-01-27 21:38:00,
2013-01-27 16:43:00,32.5,10.3,30.41,WNW,303,3.0,6.0,39,0.00,,---,0.00,VWS V13.01,2013-01-27 21:43:00,
2013-01-27 16:48:00,32.4,10.8,30.41,NW,317,5.0,7.0,40,0.00,,---,0.00,VWS V13.01,2013-01-27 21:48:00,
2013-01-27 16:53:00,32.2,10.0,30.41,NW,317,5.0,8.0,39,0.00,,---,0.00,VWS V13.01,2013-01-27 21:53:00,
2013-01-27 16:58:00,32.1,10.5,30.42,NW,321,2.0,5.0,40,0.00,,---,0.00,VWS V13.01,2013-01-27 21:58:00,
2013-01-27 17:03:00,31.9,10.9,30.42,NW,315,5.0,9.0,41,0.00,,---,0.00,VWS V13.01,2013-01-27 22:03:00,
2013-01-27 17:08:00,31.6,10.6,30.42,NW,317,1.0,9.0,41,0.00,,---,0.00,VWS V13.01,2013-01-27 22:08:00,
2013-01-27 17:13:00,31.5,10.5,30.42,NW,317,2.0,6.0,41,0.00,,---,0.00,VWS V13.01,2013-01-27 22:13:00,
2013-01-27 17:18:00,31.2,10.8,30.42,NW,317,3.0,6.0,42,0.00,,---,0.00,VWS V13.01,2013-01-27 22:18:00,
2013-01-27 17:23:00,31.0,10.6,30.42,WNW,301,2.0,7.0,42,0.00,,---,0.00,VWS V13.01,2013-01-27 22:23:00,
2013-01-27 17:28:00,30.9,10.5,30.42,WNW,301,3.0,3.0,42,0.00,,---,0.00,VWS V13.01,2013-01-27 22:28:00,
2013-01-27 17:33:00,30.7,10.3,30.42,WNW,301,1.0,3.0,42,0.00,,---,0.00,VWS V13.01,2013-01-27 22:33:00,
2013-01-27 17:38:00,30.7,10.3,30.42,WNW,301,0.0,5.0,42,0.00,,---,0.00,VWS V13.01,2013-01-27 22:38:00,
2013-01-27 17:43:00,30.7,10.3,30.42,WNW,301,1.0,4.0,42,0.00,,---,0.00,VWS V13.01,2013-01-27 22:43:00,
2013-01-27 17:48:00,30.6,10.2,30.42,WNW,301,1.0,4.0,42,0.00,,---,0.00,VWS V13.01,2013-01-27 22:48:00,
2013-01-27 17:53:00,30.6,10.2,30.42,WNW,301,2.0,4.0,42,0.00,,---,0.00,VWS V13.01,2013-01-27 22:53:00,
2013-01-27 17:58:00,30.4,10.1,30.43,WNW,301,1.0,3.0,42,0.00,,---,0.00,VWS V13.01,2013-01-27 22:58:00,
2013-01-27 18:03:00,30.4,10.1,30.43,WNW,301,0.0,3.0,42,0.00,,---,0.00,VWS V13.01,2013-01-27 23:03:00,
2013-01-27 18:08:00,30.3,10.5,30.43,WNW,301,2.0,3.0,43,0.00,,---,0.00,VWS V13.01,2013-01-27 23:08:00,
2013-01-27 18:13:00,30.1,10.3,30.43,WNW,301,0.0,2.0,43,0.00,,---,0.00,VWS V13.01,2013-01-27 23:13:00,
2013-01-27 18:18:00,30.0,10.2,30.43,WNW,301,0.0,2.0,43,0.00,,---,0.00,VWS V13.01,2013-01-27 23:18:00,
2013-01-27 18:23:00,29.7,10.5,30.43,WNW,301,0.0,2.0,44,0.00,,---,0.00,VWS V13.01,2013-01-27 23:23:00,
2013-01-27 18:28:00,29.4,10.2,30.43,WNW,301,0.0,0.0,44,0.00,,---,0.00,VWS V13.01,2013-01-27 23:28:00,
2013-01-27 18:33:00,29.1,10.4,30.43,WNW,301,0.0,0.0,45,0.00,,---,0.00,VWS V13.01,2013-01-27 23:33:00,
2013-01-27 18:38:00,29.0,10.3,30.43,WNW,301,0.0,0.0,45,0.00,,---,0.00,VWS V13.01,2013-01-27 23:38:00,
2013-01-27 18:43:00,29.0,10.3,30.43,WNW,301,0.0,0.0,45,0.00,,---,0.00,VWS V13.01,2013-01-27 23:43:00,
2013-01-27 18:48:00,28.8,10.1,30.43,WNW,301,0.0,0.0,45,0.00,,---,0.00,VWS V13.01,2013-01-27 23:48:00,
2013-01-27 18:53:00,28.7,10.6,30.43,WNW,301,0.0,0.0,46,0.00,,---,0.00,VWS V13.01,2013-01-27 23:53:00,
2013-01-27 18:58:00,28.7,10.6,30.43,WNW,301,0.0,0.0,46,0.00,,---,0.00,VWS V13.01,2013-01-27 23:58:00,
2013-01-27 19:03:00,28.8,10.6,30.43,WNW,301,0.0,0.0,46,0.00,,---,0.00,VWS V13.01,2013-01-28 00:03:00,
2013-01-27 19:08:00,28.7,10.6,30.43,WNW,301,0.0,0.0,46,0.00,,---,0.00,VWS V13.01,2013-01-28 00:08:00,
2013-01-27 19:13:00,28.2,10.1,30.43,WNW,301,0.0,0.0,46,0.00,,---,0.00,VWS V13.01,2013-01-28 00:13:00,
2013-01-27 19:18:00,27.8,10.2,30.43,WNW,301,0.0,0.0,47,0.00,,---,0.00,VWS V13.01,2013-01-28 00:18:00,
2013-01-27 19:23:00,27.3,10.7,30.43,WNW,301,0.0,0.0,49,0.00,,---,0.00,VWS V13.01,2013-01-28 00:23:00,
2013-01-27 19:28:00,27.0,10.4,30.42,WNW,301,0.0,0.0,49,0.00,,---,0.00,VWS V13.01,2013-01-28 00:28:00,
2013-01-27 19:33:00,26.9,10.8,30.42,WNW,301,0.0,0.0,50,0.00,,---,0.00,VWS V13.01,2013-01-28 00:33:00,
2013-01-27 19:38:00,26.9,10.3,30.42,WNW,301,0.0,0.0,49,0.00,,---,0.00,VWS V13.01,2013-01-28 00:38:00,
2013-01-27 19:43:00,26.9,10.8,30.42,WNW,301,0.0,0.0,50,0.00,,---,0.00,VWS V13.01,2013-01-28 00:43:00,
2013-01-27 19:48:00,26.9,10.8,30.42,WNW,301,0.0,0.0,50,0.00,,---,0.00,VWS V13.01,2013-01-28 00:48:00,
2013-01-27 19:53:00,27.0,10.9,30.42,WNW,301,0.0,0.0,50,0.00,,---,0.00,VWS V13.01,2013-01-28 00:53:00,
2013-01-27 19:58:00,27.0,10.9,30.42,WNW,301,0.0,0.0,50,0.00,,---,0.00,VWS V13.01,2013-01-28 00:58:00,
2013-01-27 20:03:00,27.3,10.7,30.42,WNW,301,0.0,2.0,49,0.00,,---,0.00,VWS V13.01,2013-01-28 01:03:00,
2013-01-27 20:08:00,27.5,10.9,30.42,WNW,301,1.0,2.0,49,0.00,,---,0.00,VWS V13.01,2013-01-28 01:08:00,
2013-01-27 20:13:00,27.6,10.5,30.42,WNW,301,1.0,2.0,48,0.00,,---,0.00,VWS V13.01,2013-01-28 01:13:00,
2013-01-27 20:18:00,27.8,10.7,30.42,WNW,301,1.0,3.0,48,0.00,,---,0.00,VWS V13.01,2013-01-28 01:18:00,
2013-01-27 20:23:00,27.8,11.1,30.42,WNW,301,1.0,3.0,49,0.00,,---,0.00,VWS V13.01,2013-01-28 01:23:00,
2013-01-27 20:28:00,27.5,10.9,30.42,WNW,301,1.0,2.0,49,0.00,,---,0.00,VWS V13.01,2013-01-28 01:28:00,
2013-01-27 20:33:00,27.0,10.9,30.42,WNW,301,1.0,2.0,50,0.00,,---,0.00,VWS V13.01,2013-01-28 01:33:00,
2013-01-27 20:38:00,26.6,10.9,30.42,WNW,301,2.0,3.0,51,0.00,,---,0.00,VWS V13.01,2013-01-28 01:38:00,
2013-01-27 20:43:00,26.4,11.2,30.42,WNW,301,1.0,2.0,52,0.00,,---,0.00,VWS V13.01,2013-01-28 01:43:00,
2013-01-27 20:48:00,26.1,10.9,30.42,WNW,301,0.0,3.0,52,0.00,,---,0.00,VWS V13.01,2013-01-28 01:48:00,
2013-01-27 20:53:00,26.0,11.2,30.42,WNW,301,0.0,3.0,53,0.00,,---,0.00,VWS V13.01,2013-01-28 01:53:00,
2013-01-27 20:58:00,25.8,11.0,30.43,WNW,301,0.0,1.0,53,0.00,,---,0.00,VWS V13.01,2013-01-28 01:58:00,
2013-01-27 21:03:00,25.7,10.9,30.43,WNW,301,0.0,1.0,53,0.00,,---,0.00,VWS V13.01,2013-01-28 02:03:00,
2013-01-27 21:08:00,25.4,10.7,30.43,WNW,301,0.0,1.0,53,0.00,,---,0.00,VWS V13.01,2013-01-28 02:08:00,
2013-01-27 21:13:00,25.1,10.8,30.43,WNW,301,1.0,1.0,54,0.00,,---,0.00,VWS V13.01,2013-01-28 02:13:00,
2013-01-27 21:18:00,24.8,10.9,30.43,WNW,301,0.0,1.0,55,0.00,,---,0.00,VWS V13.01,2013-01-28 02:18:00,
2013-01-27 21:23:00,24.5,11.1,30.43,WNW,301,0.0,1.0,56,0.00,,---,0.00,VWS V13.01,2013-01-28 02:23:00,
2013-01-27 21:28:00,24.4,11.4,30.43,WNW,301,0.0,0.0,57,0.00,,---,0.00,VWS V13.01,2013-01-28 02:28:00,
2013-01-27 21:33:00,24.2,11.2,30.43,WNW,301,0.0,0.0,57,0.00,,---,0.00,VWS V13.01,2013-01-28 02:33:00,
2013-01-27 21:38:00,24.1,11.5,30.43,WNW,301,0.0,0.0,58,0.00,,---,0.00,VWS V13.01,2013-01-28 02:38:00,
2013-01-27 21:43:00,23.9,11.3,30.42,WNW,301,0.0,0.0,58,0.00,,---,0.00,VWS V13.01,2013-01-28 02:43:00,
2013-01-27 21:48:00,23.6,11.0,30.42,WNW,301,0.0,0.0,58,0.00,,---,0.00,VWS V13.01,2013-01-28 02:48:00,
2013-01-27 21:53:00,23.6,11.4,30.42,WNW,301,0.0,0.0,59,0.00,,---,0.00,VWS V13.01,2013-01-28 02:53:00,
2013-01-27 21:58:00,24.1,11.5,30.42,WNW,301,0.0,0.0,58,0.00,,---,0.00,VWS V13.01,2013-01-28 02:58:00,
2013-01-27 22:03:00,24.1,11.5,30.42,WNW,301,0.0,0.0,58,0.00,,---,0.00,VWS V13.01,2013-01-28 03:03:00,
2013-01-27 22:08:00,24.1,11.9,30.42,WNW,301,0.0,0.0,59,0.00,,---,0.00,VWS V13.01,2013-01-28 03:08:00,
2013-01-27 22:13:00,23.8,12.0,30.42,WNW,301,0.0,0.0,60,0.00,,---,0.00,VWS V13.01,2013-01-28 03:13:00,
2013-01-27 22:18:00,23.6,12.1,30.42,WNW,301,0.0,0.0,61,0.00,,---,0.00,VWS V13.01,2013-01-28 03:18:00,
2013-01-27 22:23:00,23.6,11.8,30.42,WNW,301,0.0,0.0,60,0.00,,---,0.00,VWS V13.01,2013-01-28 03:23:00,
2013-01-27 22:28:00,23.5,12.0,30.41,WNW,301,0.0,0.0,61,0.00,,---,0.00,VWS V13.01,2013-01-28 03:28:00,
2013-01-27 22:33:00,23.3,12.2,30.41,WNW,301,0.0,0.0,62,0.00,,---,0.00,VWS V13.01,2013-01-28 03:33:00,
2013-01-27 22:38:00,23.2,12.1,30.41,WNW,301,0.0,0.0,62,0.00,,---,0.00,VWS V13.01,2013-01-28 03:38:00,
2013-01-27 22:43:00,23.2,12.1,30.41,WNW,301,0.0,0.0,62,0.00,,---,0.00,VWS V13.01,2013-01-28 03:43:00,
2013-01-27 22:48:00,23.5,12.0,30.41,WNW,301,0.0,0.0,61,0.00,,---,0.00,VWS V13.01,2013-01-28 03:48:00,
2013-01-27 22:53:00,23.8,12.3,30.41,WNW,301,0.0,0.0,61,0.00,,---,0.00,VWS V13.01,2013-01-28 03:53:00,
2013-01-27 22:58:00,23.9,12.4,30.41,WNW,301,0.0,0.0,61,0.00,,---,0.00,VWS V13.01,2013-01-28 03:58:00,
2013-01-27 23:03:00,23.9,12.1,30.41,WNW,301,0.0,0.0,60,0.00,,---,0.00,VWS V13.01,2013-01-28 04:03:00,
2013-01-27 23:08:00,23.8,12.3,30.41,WNW,301,0.0,0.0,61,0.00,,---,0.00,VWS V13.01,2013-01-28 04:08:00,
2013-01-27 23:13:00,23.8,12.0,30.41,WNW,301,0.0,0.0,60,0.00,,---,0.00,VWS V13.01,2013-01-28 04:13:00,
2013-01-27 23:18:00,23.6,12.1,30.41,WNW,301,0.0,0.0,61,0.00,,---,0.00,VWS V13.01,2013-01-28 04:18:00,
2013-01-27 23:23:00,23.6,12.1,30.41,WNW,301,1.0,1.0,61,0.00,,---,0.00,VWS V13.01,2013-01-28 04:23:00,
2013-01-27 23:28:00,23.9,12.4,30.40,WNW,301,0.0,1.0,61,0.00,,---,0.00,VWS V13.01,2013-01-28 04:28:00,
2013-01-27 23:33:00,23.9,12.4,30.40,WNW,301,3.0,4.0,61,0.00,,---,0.00,VWS V13.01,2013-01-28 04:33:00,
2013-01-27 23:38:00,24.2,12.7,30.40,WNW,301,3.0,5.0,61,0.00,,---,0.00,VWS V13.01,2013-01-28 04:38:00,
2013-01-27 23:43:00,24.4,12.5,30.42,WNW,301,4.0,4.0,60,0.00,,---,0.00,VWS V13.01,2013-01-28 04:43:00,
2013-01-27 23:48:00,24.2,12.3,30.42,WNW,301,1.0,4.0,60,0.00,,---,0.00,VWS V13.01,2013-01-28 04:48:00,
2013-01-27 23:53:00,23.9,12.4,30.42,WNW,301,1.0,4.0,61,0.00,,---,0.00,VWS V13.01,2013-01-28 04:53:00,
2013-01-27 23:58:00,23.8,12.7,30.42,WNW,301,1.0,2.0,62,0.00,,---,0.00,VWS V13.01,2013-01-28 04:58:00,